sensor_id;sensor_type;location;lat;lon;timestamp;pressure;altitude;pressure_sealevel;temperature;humidity
36190;BME280;22232;50.914;13.858;2023-06-01T00:01:18;98127.50;;;14.29;94.00
36190;BME280;22232;50.914;13.858;2023-06-01T00:03:48;98124.22;;;14.27;93.84
36190;BME280;22232;50.914;13.858;2023-06-01T00:06:16;98126.38;;;14.25;94.41
36190;BME280;22232;50.914;13.858;2023-06-01T00:08:44;98123.09;;;14.23;94.44
36190;BME280;22232;50.914;13.858;2023-06-01T00:11:11;98129.78;;;14.20;94.09
36190;BME280;22232;50.914;13.858;2023-06-01T00:13:39;98122.47;;;14.16;93.95
36190;BME280;22232;50.914;13.858;2023-06-01T00:16:07;98119.53;;;14.17;93.74
36190;BME280;22232;50.914;13.858;2023-06-01T00:18:35;98113.38;;;14.17;94.00
36190;BME280;22232;50.914;13.858;2023-06-01T00:21:02;98117.91;;;14.16;93.88
36190;BME280;22232;50.914;13.858;2023-06-01T00:23:30;98116.53;;;14.14;94.21
36190;BME280;22232;50.914;13.858;2023-06-01T00:25:58;98113.84;;;14.14;93.95
36190;BME280;22232;50.914;13.858;2023-06-01T00:28:26;98116.78;;;14.12;94.81
36190;BME280;22232;50.914;13.858;2023-06-01T00:30:54;98113.78;;;14.09;94.98
36190;BME280;22232;50.914;13.858;2023-06-01T00:33:21;98112.66;;;14.05;95.08
36190;BME280;22232;50.914;13.858;2023-06-01T00:35:49;98111.03;;;14.04;95.46
36190;BME280;22232;50.914;13.858;2023-06-01T00:38:18;98113.41;;;14.00;95.30
36190;BME280;22232;50.914;13.858;2023-06-01T00:40:47;98110.94;;;13.98;95.23
36190;BME280;22232;50.914;13.858;2023-06-01T00:43:18;98113.06;;;13.96;94.76
36190;BME280;22232;50.914;13.858;2023-06-01T00:45:46;98108.75;;;13.95;94.82
36190;BME280;22232;50.914;13.858;2023-06-01T00:48:15;98099.09;;;13.94;94.46
36190;BME280;22232;50.914;13.858;2023-06-01T00:50:46;98098.28;;;13.94;94.86
36190;BME280;22232;50.914;13.858;2023-06-01T00:53:19;98103.88;;;13.92;94.29
36190;BME280;22232;50.914;13.858;2023-06-01T00:55:47;98105.50;;;13.93;93.74
36190;BME280;22232;50.914;13.858;2023-06-01T00:58:15;98099.91;;;13.95;93.26
36190;BME280;22232;50.914;13.858;2023-06-01T01:00:43;98096.91;;;13.91;93.46
36190;BME280;22232;50.914;13.858;2023-06-01T01:03:10;98097.72;;;13.92;93.39
36190;BME280;22232;50.914;13.858;2023-06-01T01:05:41;98099.59;;;13.91;93.80
36190;BME280;22232;50.914;13.858;2023-06-01T01:09:01;98095.53;;;13.89;93.33
36190;BME280;22232;50.914;13.858;2023-06-01T01:11:24;98093.66;;;13.89;93.34
36190;BME280;22232;50.914;13.858;2023-06-01T01:14:02;98097.41;;;13.88;93.13
36190;BME280;22232;50.914;13.858;2023-06-01T01:19:41;98094.13;;;13.86;91.24
36190;BME280;22232;50.914;13.858;2023-06-01T01:27:38;98108.13;;;13.88;89.29
36190;BME280;22232;50.914;13.858;2023-06-01T01:30:06;98109.41;;;13.86;88.45
36190;BME280;22232;50.914;13.858;2023-06-01T01:32:34;98107.22;;;13.83;88.61
36190;BME280;22232;50.914;13.858;2023-06-01T01:35:04;98102.97;;;13.87;88.40
36190;BME280;22232;50.914;13.858;2023-06-01T01:37:33;98101.38;;;13.86;88.31
36190;BME280;22232;50.914;13.858;2023-06-01T01:40:01;98103.72;;;13.82;88.33
36190;BME280;22232;50.914;13.858;2023-06-01T01:42:29;98098.59;;;13.81;88.13
36190;BME280;22232;50.914;13.858;2023-06-01T01:44:57;98095.91;;;13.81;88.25
36190;BME280;22232;50.914;13.858;2023-06-01T01:47:31;98091.63;;;13.80;88.35
36190;BME280;22232;50.914;13.858;2023-06-01T01:50:05;98094.53;;;13.78;88.66
36190;BME280;22232;50.914;13.858;2023-06-01T01:52:44;98090.50;;;13.75;88.28
36190;BME280;22232;50.914;13.858;2023-06-01T01:55:14;98082.69;;;13.74;88.81
36190;BME280;22232;50.914;13.858;2023-06-01T01:57:43;98086.44;;;13.73;88.05
36190;BME280;22232;50.914;13.858;2023-06-01T02:00:12;98079.69;;;13.70;87.91
36190;BME280;22232;50.914;13.858;2023-06-01T02:02:40;98076.19;;;13.70;86.46
36190;BME280;22232;50.914;13.858;2023-06-01T02:05:07;98077.22;;;13.69;86.26
36190;BME280;22232;50.914;13.858;2023-06-01T02:07:35;98075.63;;;13.68;86.07
36190;BME280;22232;50.914;13.858;2023-06-01T02:10:05;98074.00;;;13.67;86.07
36190;BME280;22232;50.914;13.858;2023-06-01T02:12:33;98073.09;;;13.61;86.75
36190;BME280;22232;50.914;13.858;2023-06-01T02:15:01;98075.47;;;13.58;87.38
36190;BME280;22232;50.914;13.858;2023-06-01T02:17:28;98077.56;;;13.56;87.57
36190;BME280;22232;50.914;13.858;2023-06-01T02:19:56;98070.81;;;13.53;87.62
36190;BME280;22232;50.914;13.858;2023-06-01T02:22:24;98073.75;;;13.51;87.76
36190;BME280;22232;50.914;13.858;2023-06-01T02:24:52;98066.22;;;13.48;87.63
36190;BME280;22232;50.914;13.858;2023-06-01T02:27:19;98065.13;;;13.49;86.70
36190;BME280;22232;50.914;13.858;2023-06-01T02:29:47;98063.75;;;13.47;85.65
36190;BME280;22232;50.914;13.858;2023-06-01T02:32:15;98067.72;;;13.44;84.92
36190;BME280;22232;50.914;13.858;2023-06-01T02:34:43;98061.81;;;13.42;84.58
36190;BME280;22232;50.914;13.858;2023-06-01T02:37:11;98057.28;;;13.43;84.10
36190;BME280;22232;50.914;13.858;2023-06-01T02:39:39;98061.25;;;13.40;84.25
36190;BME280;22232;50.914;13.858;2023-06-01T02:42:07;98057.75;;;13.40;84.79
36190;BME280;22232;50.914;13.858;2023-06-01T02:44:35;98050.44;;;13.35;85.67
36190;BME280;22232;50.914;13.858;2023-06-01T02:47:02;98053.38;;;13.34;86.32
36190;BME280;22232;50.914;13.858;2023-06-01T02:49:30;98047.91;;;13.28;87.40
36190;BME280;22232;50.914;13.858;2023-06-01T02:51:58;98055.00;;;13.23;89.43
36190;BME280;22232;50.914;13.858;2023-06-01T02:54:26;98052.59;;;13.21;91.56
36190;BME280;22232;50.914;13.858;2023-06-01T02:56:54;98050.06;;;13.15;93.27
36190;BME280;22232;50.914;13.858;2023-06-01T02:59:36;98038.19;;;13.11;94.13
36190;BME280;22232;50.914;13.858;2023-06-01T03:02:04;98030.66;;;13.07;93.18
36190;BME280;22232;50.914;13.858;2023-06-01T03:04:31;98034.97;;;13.08;91.26
36190;BME280;22232;50.914;13.858;2023-06-01T03:07:00;98034.13;;;13.08;89.59
36190;BME280;22232;50.914;13.858;2023-06-01T03:09:42;98036.81;;;13.08;88.74
36190;BME280;22232;50.914;13.858;2023-06-01T03:12:24;98040.06;;;13.10;87.96
36190;BME280;22232;50.914;13.858;2023-06-01T03:14:52;98033.66;;;13.11;87.65
36190;BME280;22232;50.914;13.858;2023-06-01T03:17:20;98034.00;;;13.15;87.34
36190;BME280;22232;50.914;13.858;2023-06-01T03:19:47;98036.75;;;13.20;87.13
36190;BME280;22232;50.914;13.858;2023-06-01T03:22:21;98036.88;;;13.25;86.75
36190;BME280;22232;50.914;13.858;2023-06-01T03:24:49;98029.25;;;13.34;86.16
36190;BME280;22232;50.914;13.858;2023-06-01T03:27:21;98034.28;;;13.47;85.76
36190;BME280;22232;50.914;13.858;2023-06-01T03:29:49;98036.63;;;13.60;84.31
36190;BME280;22232;50.914;13.858;2023-06-01T03:32:18;98031.84;;;13.79;83.59
36190;BME280;22232;50.914;13.858;2023-06-01T03:34:45;98032.59;;;13.96;81.52
36190;BME280;22232;50.914;13.858;2023-06-01T03:37:13;98029.50;;;14.05;79.81
36190;BME280;22232;50.914;13.858;2023-06-01T03:39:41;98029.59;;;14.10;79.32
36190;BME280;22232;50.914;13.858;2023-06-01T03:42:11;98032.81;;;14.12;78.86
36190;BME280;22232;50.914;13.858;2023-06-01T03:44:39;98036.25;;;14.07;79.31
36190;BME280;22232;50.914;13.858;2023-06-01T03:47:08;98036.00;;;14.09;78.45
36190;BME280;22232;50.914;13.858;2023-06-01T03:49:36;98032.81;;;14.12;79.25
36190;BME280;22232;50.914;13.858;2023-06-01T03:52:08;98038.25;;;14.17;78.08
36190;BME280;22232;50.914;13.858;2023-06-01T03:54:36;98044.34;;;13.40;90.03
36190;BME280;22232;50.914;13.858;2023-06-01T03:57:11;98045.19;;;13.12;96.38
36190;BME280;22232;50.914;13.858;2023-06-01T03:59:39;98048.81;;;13.05;99.12
36190;BME280;22232;50.914;13.858;2023-06-01T04:02:07;98044.28;;;13.06;98.92
36190;BME280;22232;50.914;13.858;2023-06-01T04:04:36;98042.34;;;13.18;94.51
36190;BME280;22232;50.914;13.858;2023-06-01T04:07:04;98052.25;;;13.18;93.69
36190;BME280;22232;50.914;13.858;2023-06-01T04:09:33;98058.31;;;13.25;94.45
36190;BME280;22232;50.914;13.858;2023-06-01T04:12:00;98057.16;;;13.38;94.64
36190;BME280;22232;50.914;13.858;2023-06-01T04:14:30;98063.28;;;13.67;95.52
36190;BME280;22232;50.914;13.858;2023-06-01T04:16:58;98053.63;;;14.43;95.09
36190;BME280;22232;50.914;13.858;2023-06-01T04:19:26;98053.91;;;15.13;87.16
36190;BME280;22232;50.914;13.858;2023-06-01T04:21:59;98047.47;;;15.78;80.62
36190;BME280;22232;50.914;13.858;2023-06-01T04:24:28;98044.56;;;16.33;77.11
36190;BME280;22232;50.914;13.858;2023-06-01T04:26:56;98048.84;;;16.81;70.57
36190;BME280;22232;50.914;13.858;2023-06-01T04:29:27;98047.31;;;17.41;68.99
36190;BME280;22232;50.914;13.858;2023-06-01T04:31:54;98045.97;;;18.00;71.66
36190;BME280;22232;50.914;13.858;2023-06-01T04:34:23;98044.72;;;18.52;63.67
36190;BME280;22232;50.914;13.858;2023-06-01T04:36:51;98044.84;;;18.87;62.67
36190;BME280;22232;50.914;13.858;2023-06-01T04:39:19;98037.03;;;19.30;55.95
36190;BME280;22232;50.914;13.858;2023-06-01T04:41:46;98038.06;;;19.73;56.93
36190;BME280;22232;50.914;13.858;2023-06-01T04:44:17;98036.06;;;19.84;54.67
36190;BME280;22232;50.914;13.858;2023-06-01T04:46:46;98033.44;;;20.51;52.43
36190;BME280;22232;50.914;13.858;2023-06-01T04:49:17;98041.25;;;20.33;55.75
36190;BME280;22232;50.914;13.858;2023-06-01T04:51:46;98046.34;;;20.64;53.63
36190;BME280;22232;50.914;13.858;2023-06-01T04:54:13;98036.03;;;20.85;52.31
36190;BME280;22232;50.914;13.858;2023-06-01T04:56:42;98034.72;;;20.82;52.58
36190;BME280;22232;50.914;13.858;2023-06-01T04:59:10;98036.19;;;20.94;51.91
36190;BME280;22232;50.914;13.858;2023-06-01T05:01:39;98039.72;;;20.94;53.02
36190;BME280;22232;50.914;13.858;2023-06-01T05:04:07;98034.34;;;20.70;53.69
36190;BME280;22232;50.914;13.858;2023-06-01T05:06:34;98030.22;;;20.49;57.64
36190;BME280;22232;50.914;13.858;2023-06-01T05:09:03;98037.53;;;20.72;55.19
36190;BME280;22232;50.914;13.858;2023-06-01T05:11:33;98038.69;;;21.09;54.16
36190;BME280;22232;50.914;13.858;2023-06-01T05:14:02;98039.34;;;21.20;54.38
36190;BME280;22232;50.914;13.858;2023-06-01T05:16:32;98035.31;;;21.69;51.07
36190;BME280;22232;50.914;13.858;2023-06-01T05:19:02;98030.59;;;22.07;51.19
36190;BME280;22232;50.914;13.858;2023-06-01T05:21:31;98039.38;;;22.32;51.78
36190;BME280;22232;50.914;13.858;2023-06-01T05:23:59;98036.22;;;22.11;49.52
36190;BME280;22232;50.914;13.858;2023-06-01T05:26:27;98033.63;;;22.33;50.25
36190;BME280;22232;50.914;13.858;2023-06-01T05:28:55;98035.31;;;22.15;49.96
36190;BME280;22232;50.914;13.858;2023-06-01T05:31:22;98026.72;;;21.81;53.12
36190;BME280;22232;50.914;13.858;2023-06-01T05:33:54;98023.28;;;21.75;54.21
36190;BME280;22232;50.914;13.858;2023-06-01T05:36:24;98025.06;;;21.66;54.02
36190;BME280;22232;50.914;13.858;2023-06-01T05:38:52;98025.50;;;21.87;54.14
36190;BME280;22232;50.914;13.858;2023-06-01T05:41:19;98027.09;;;21.74;50.95
36190;BME280;22232;50.914;13.858;2023-06-01T05:43:47;98026.38;;;21.36;54.12
36190;BME280;22232;50.914;13.858;2023-06-01T05:46:15;98025.03;;;22.12;53.05
36190;BME280;22232;50.914;13.858;2023-06-01T05:48:42;98024.84;;;22.78;51.74
36190;BME280;22232;50.914;13.858;2023-06-01T05:51:13;98030.56;;;22.76;49.25
36190;BME280;22232;50.914;13.858;2023-06-01T05:53:41;98030.09;;;23.24;49.56
36190;BME280;22232;50.914;13.858;2023-06-01T05:56:09;98028.50;;;23.68;48.13
36190;BME280;22232;50.914;13.858;2023-06-01T05:58:37;98031.34;;;23.41;48.45
36190;BME280;22232;50.914;13.858;2023-06-01T06:01:04;98036.47;;;23.42;49.17
36190;BME280;22232;50.914;13.858;2023-06-01T06:03:32;98038.50;;;23.36;48.92
36190;BME280;22232;50.914;13.858;2023-06-01T06:06:00;98038.09;;;23.66;49.89
36190;BME280;22232;50.914;13.858;2023-06-01T06:08:28;98041.41;;;24.08;48.97
36190;BME280;22232;50.914;13.858;2023-06-01T06:10:56;98038.47;;;24.75;47.22
36190;BME280;22232;50.914;13.858;2023-06-01T06:13:24;98039.47;;;25.05;46.30
36190;BME280;22232;50.914;13.858;2023-06-01T06:15:51;98037.25;;;25.42;47.28
36190;BME280;22232;50.914;13.858;2023-06-01T06:18:19;98033.69;;;25.50;44.50
36190;BME280;22232;50.914;13.858;2023-06-01T06:20:47;98034.19;;;25.44;44.86
36190;BME280;22232;50.914;13.858;2023-06-01T06:23:14;98028.72;;;25.52;43.44
36190;BME280;22232;50.914;13.858;2023-06-01T06:25:42;98023.53;;;25.77;44.48
36190;BME280;22232;50.914;13.858;2023-06-01T06:28:10;98019.50;;;25.92;44.29
36190;BME280;22232;50.914;13.858;2023-06-01T06:30:38;98026.19;;;26.20;43.93
36190;BME280;22232;50.914;13.858;2023-06-01T06:33:06;98015.72;;;26.61;45.04
36190;BME280;22232;50.914;13.858;2023-06-01T06:35:37;98021.94;;;26.70;43.29
36190;BME280;22232;50.914;13.858;2023-06-01T06:38:06;98014.16;;;26.51;43.37
36190;BME280;22232;50.914;13.858;2023-06-01T06:40:34;98011.06;;;26.82;43.79
36190;BME280;22232;50.914;13.858;2023-06-01T06:43:01;98012.94;;;27.32;41.75
36190;BME280;22232;50.914;13.858;2023-06-01T06:45:29;98016.16;;;27.13;42.01
36190;BME280;22232;50.914;13.858;2023-06-01T06:47:56;98019.81;;;27.38;42.05
36190;BME280;22232;50.914;13.858;2023-06-01T06:50:24;98016.84;;;27.64;41.64
36190;BME280;22232;50.914;13.858;2023-06-01T06:52:51;98013.63;;;27.83;41.35
36190;BME280;22232;50.914;13.858;2023-06-01T06:55:19;98020.13;;;27.79;42.24
36190;BME280;22232;50.914;13.858;2023-06-01T06:57:47;98013.16;;;27.81;42.69
36190;BME280;22232;50.914;13.858;2023-06-01T07:00:15;98009.59;;;27.81;42.18
36190;BME280;22232;50.914;13.858;2023-06-01T07:02:43;98012.06;;;27.61;42.78
36190;BME280;22232;50.914;13.858;2023-06-01T07:05:12;98015.63;;;27.74;40.87
36190;BME280;22232;50.914;13.858;2023-06-01T07:07:40;98005.66;;;27.57;42.64
36190;BME280;22232;50.914;13.858;2023-06-01T07:10:08;98010.63;;;26.42;42.64
36190;BME280;22232;50.914;13.858;2023-06-01T07:12:36;98020.72;;;25.30;44.92
36190;BME280;22232;50.914;13.858;2023-06-01T07:15:04;98017.09;;;24.20;47.62
36190;BME280;22232;50.914;13.858;2023-06-01T07:17:32;98014.59;;;24.01;49.50
36190;BME280;22232;50.914;13.858;2023-06-01T07:20:02;98016.38;;;24.06;50.72
36190;BME280;22232;50.914;13.858;2023-06-01T07:22:33;98014.06;;;24.70;50.02
36190;BME280;22232;50.914;13.858;2023-06-01T07:25:01;98006.38;;;24.72;47.44
36190;BME280;22232;50.914;13.858;2023-06-01T07:27:29;98010.22;;;24.80;47.79
36190;BME280;22232;50.914;13.858;2023-06-01T07:29:57;98000.88;;;24.15;48.57
36190;BME280;22232;50.914;13.858;2023-06-01T07:32:25;98000.97;;;24.41;50.26
36190;BME280;22232;50.914;13.858;2023-06-01T07:34:53;98005.75;;;24.92;50.84
36190;BME280;22232;50.914;13.858;2023-06-01T07:37:20;98005.53;;;24.54;49.17
36190;BME280;22232;50.914;13.858;2023-06-01T07:39:49;97999.13;;;24.19;47.98
36190;BME280;22232;50.914;13.858;2023-06-01T07:42:16;98006.31;;;24.55;49.60
36190;BME280;22232;50.914;13.858;2023-06-01T07:44:45;98003.91;;;24.13;49.80
36190;BME280;22232;50.914;13.858;2023-06-01T07:47:13;98001.16;;;24.13;53.38
36190;BME280;22232;50.914;13.858;2023-06-01T07:49:40;98000.56;;;24.25;52.45
36190;BME280;22232;50.914;13.858;2023-06-01T07:52:08;97998.16;;;24.63;49.55
36190;BME280;22232;50.914;13.858;2023-06-01T07:54:36;98003.00;;;24.84;49.08
36190;BME280;22232;50.914;13.858;2023-06-01T07:57:04;98002.66;;;24.68;49.54
36190;BME280;22232;50.914;13.858;2023-06-01T07:59:32;97996.88;;;24.69;50.13
36190;BME280;22232;50.914;13.858;2023-06-01T08:02:00;98005.75;;;24.92;48.85
36190;BME280;22232;50.914;13.858;2023-06-01T08:04:28;98003.69;;;25.15;49.00
36190;BME280;22232;50.914;13.858;2023-06-01T08:07:01;97993.53;;;24.81;48.59
36190;BME280;22232;50.914;13.858;2023-06-01T08:09:35;97993.97;;;24.48;51.90
36190;BME280;22232;50.914;13.858;2023-06-01T08:12:05;98003.31;;;24.25;50.43
36190;BME280;22232;50.914;13.858;2023-06-01T08:14:34;97994.66;;;24.71;51.85
36190;BME280;22232;50.914;13.858;2023-06-01T08:17:02;97992.63;;;25.29;50.83
36190;BME280;22232;50.914;13.858;2023-06-01T08:19:30;97988.09;;;25.51;48.61
36190;BME280;22232;50.914;13.858;2023-06-01T08:21:58;97987.78;;;26.08;48.97
36190;BME280;22232;50.914;13.858;2023-06-01T08:24:26;97985.91;;;25.91;47.75
36190;BME280;22232;50.914;13.858;2023-06-01T08:26:54;97989.59;;;26.34;45.04
36190;BME280;22232;50.914;13.858;2023-06-01T08:29:23;97982.00;;;26.09;45.56
36190;BME280;22232;50.914;13.858;2023-06-01T08:32:09;97980.31;;;25.79;45.49
36190;BME280;22232;50.914;13.858;2023-06-01T08:34:36;97972.41;;;25.77;48.33
36190;BME280;22232;50.914;13.858;2023-06-01T08:37:04;97973.94;;;26.43;48.17
36190;BME280;22232;50.914;13.858;2023-06-01T08:39:32;97973.81;;;26.90;47.27
36190;BME280;22232;50.914;13.858;2023-06-01T08:44:40;97974.81;;;26.64;44.85
36190;BME280;22232;50.914;13.858;2023-06-01T08:47:08;97969.88;;;26.79;45.59
36190;BME280;22232;50.914;13.858;2023-06-01T08:49:36;97978.16;;;26.91;43.91
36190;BME280;22232;50.914;13.858;2023-06-01T08:52:07;97975.59;;;26.65;43.79
36190;BME280;22232;50.914;13.858;2023-06-01T08:54:36;97975.94;;;26.34;42.86
36190;BME280;22232;50.914;13.858;2023-06-01T08:57:07;97979.13;;;26.06;45.86
36190;BME280;22232;50.914;13.858;2023-06-01T08:59:36;97979.56;;;26.08;46.44
36190;BME280;22232;50.914;13.858;2023-06-01T09:02:04;97968.34;;;26.01;45.24
36190;BME280;22232;50.914;13.858;2023-06-01T09:04:32;97972.09;;;25.96;45.20
36190;BME280;22232;50.914;13.858;2023-06-01T09:07:03;97971.78;;;25.80;44.73
36190;BME280;22232;50.914;13.858;2023-06-01T09:09:32;97963.28;;;25.82;46.17
36190;BME280;22232;50.914;13.858;2023-06-01T09:12:28;97953.13;;;26.29;46.99
36190;BME280;22232;50.914;13.858;2023-06-01T09:17:39;97954.53;;;26.86;44.61
36190;BME280;22232;50.914;13.858;2023-06-01T09:20:12;97956.47;;;27.07;43.47
36190;BME280;22232;50.914;13.858;2023-06-01T09:22:44;97952.41;;;27.46;44.54
36190;BME280;22232;50.914;13.858;2023-06-01T09:25:13;97957.31;;;27.40;43.47
36190;BME280;22232;50.914;13.858;2023-06-01T09:27:46;97950.88;;;27.70;43.33
36190;BME280;22232;50.914;13.858;2023-06-01T09:30:15;97949.72;;;27.71;42.99
36190;BME280;22232;50.914;13.858;2023-06-01T09:32:43;97950.69;;;27.41;43.32
36190;BME280;22232;50.914;13.858;2023-06-01T09:35:15;97952.53;;;27.16;43.34
36190;BME280;22232;50.914;13.858;2023-06-01T09:38:00;97955.25;;;27.37;42.54
36190;BME280;22232;50.914;13.858;2023-06-01T09:40:30;97948.44;;;27.22;43.11
36190;BME280;22232;50.914;13.858;2023-06-01T09:42:58;97939.41;;;27.43;42.43
36190;BME280;22232;50.914;13.858;2023-06-01T09:45:26;97948.69;;;27.30;42.61
36190;BME280;22232;50.914;13.858;2023-06-01T09:48:18;97947.41;;;27.48;43.25
36190;BME280;22232;50.914;13.858;2023-06-01T09:50:46;97938.56;;;27.76;42.54
36190;BME280;22232;50.914;13.858;2023-06-01T09:53:13;97938.09;;;27.74;43.47
36190;BME280;22232;50.914;13.858;2023-06-01T09:56:01;97935.88;;;28.00;42.58
36190;BME280;22232;50.914;13.858;2023-06-01T09:58:29;97933.25;;;28.41;40.11
36190;BME280;22232;50.914;13.858;2023-06-01T10:00:59;97928.75;;;28.24;40.10
36190;BME280;22232;50.914;13.858;2023-06-01T10:03:28;97925.47;;;28.30;40.92
36190;BME280;22232;50.914;13.858;2023-06-01T10:05:57;97932.19;;;28.33;39.36
36190;BME280;22232;50.914;13.858;2023-06-01T10:08:25;97929.81;;;27.95;39.88
36190;BME280;22232;50.914;13.858;2023-06-01T10:10:53;97930.72;;;28.23;40.27
36190;BME280;22232;50.914;13.858;2023-06-01T10:13:21;97937.34;;;28.47;38.61
36190;BME280;22232;50.914;13.858;2023-06-01T10:15:54;97933.00;;;28.58;36.94
36190;BME280;22232;50.914;13.858;2023-06-01T10:18:22;97922.94;;;28.13;36.54
36190;BME280;22232;50.914;13.858;2023-06-01T10:20:51;97931.88;;;28.10;40.33
36190;BME280;22232;50.914;13.858;2023-06-01T10:23:18;97927.50;;;28.58;39.13
36190;BME280;22232;50.914;13.858;2023-06-01T10:25:59;97926.91;;;28.65;37.01
36190;BME280;22232;50.914;13.858;2023-06-01T10:28:34;97917.72;;;28.73;37.84
36190;BME280;22232;50.914;13.858;2023-06-01T10:31:34;97921.94;;;28.83;37.77
36190;BME280;22232;50.914;13.858;2023-06-01T10:34:07;97921.47;;;29.21;37.95
36190;BME280;22232;50.914;13.858;2023-06-01T10:39:24;97905.47;;;29.83;35.71
36190;BME280;22232;50.914;13.858;2023-06-01T10:41:55;97901.47;;;29.36;36.19
36190;BME280;22232;50.914;13.858;2023-06-01T10:52:33;97889.38;;;27.92;38.19
36190;BME280;22232;50.914;13.858;2023-06-01T10:57:44;97905.69;;;28.25;36.73
36190;BME280;22232;50.914;13.858;2023-06-01T11:02:54;97890.78;;;27.40;36.37
36190;BME280;22232;50.914;13.858;2023-06-01T11:05:48;97885.09;;;27.57;38.44
36190;BME280;22232;50.914;13.858;2023-06-01T11:11:13;97886.75;;;27.37;36.64
36190;BME280;22232;50.914;13.858;2023-06-01T11:13:41;97887.88;;;27.24;38.51
36190;BME280;22232;50.914;13.858;2023-06-01T11:18:50;97877.84;;;26.53;41.49
36190;BME280;22232;50.914;13.858;2023-06-01T11:21:32;97877.13;;;25.84;41.28
36190;BME280;22232;50.914;13.858;2023-06-01T11:24:11;97877.00;;;25.25;41.59
36190;BME280;22232;50.914;13.858;2023-06-01T11:26:41;97870.00;;;25.92;41.06
36190;BME280;22232;50.914;13.858;2023-06-01T11:29:20;97871.44;;;26.49;39.38
36190;BME280;22232;50.914;13.858;2023-06-01T11:31:48;97870.31;;;27.04;39.48
36190;BME280;22232;50.914;13.858;2023-06-01T11:34:18;97869.34;;;27.54;39.28
36190;BME280;22232;50.914;13.858;2023-06-01T11:36:48;97861.16;;;27.91;38.25
36190;BME280;22232;50.914;13.858;2023-06-01T11:39:24;97857.97;;;27.89;38.65
36190;BME280;22232;50.914;13.858;2023-06-01T11:42:18;97851.28;;;27.41;39.36
36190;BME280;22232;50.914;13.858;2023-06-01T11:44:56;97848.97;;;27.18;41.00
36190;BME280;22232;50.914;13.858;2023-06-01T11:47:28;97851.63;;;26.73;40.94
36190;BME280;22232;50.914;13.858;2023-06-01T11:49:57;97849.69;;;26.52;41.74
36190;BME280;22232;50.914;13.858;2023-06-01T11:52:24;97844.78;;;24.66;43.41
36190;BME280;22232;50.914;13.858;2023-06-01T11:54:52;97851.72;;;25.46;47.27
36190;BME280;22232;50.914;13.858;2023-06-01T11:57:20;97849.44;;;25.95;43.55
36190;BME280;22232;50.914;13.858;2023-06-01T11:59:49;97845.63;;;26.59;43.90
36190;BME280;22232;50.914;13.858;2023-06-01T12:02:27;97840.63;;;25.80;42.16
36190;BME280;22232;50.914;13.858;2023-06-01T12:07:26;97840.75;;;25.54;43.82
36190;BME280;22232;50.914;13.858;2023-06-01T12:09:56;97832.28;;;24.65;46.44
36190;BME280;22232;50.914;13.858;2023-06-01T12:12:25;97836.47;;;24.71;46.95
36190;BME280;22232;50.914;13.858;2023-06-01T12:14:53;97827.28;;;24.76;46.56
36190;BME280;22232;50.914;13.858;2023-06-01T12:17:21;97826.44;;;25.19;45.14
36190;BME280;22232;50.914;13.858;2023-06-01T12:19:50;97829.41;;;25.35;44.42
36190;BME280;22232;50.914;13.858;2023-06-01T12:22:17;97821.75;;;25.28;44.84
36190;BME280;22232;50.914;13.858;2023-06-01T12:24:45;97823.50;;;25.33;44.88
36190;BME280;22232;50.914;13.858;2023-06-01T12:27:17;97816.59;;;25.65;47.02
36190;BME280;22232;50.914;13.858;2023-06-01T12:29:47;97828.44;;;26.07;45.83
36190;BME280;22232;50.914;13.858;2023-06-01T12:32:17;97822.75;;;26.63;43.21
36190;BME280;22232;50.914;13.858;2023-06-01T12:35:04;97806.69;;;27.07;42.13
36190;BME280;22232;50.914;13.858;2023-06-01T12:37:33;97816.50;;;26.75;42.49
36190;BME280;22232;50.914;13.858;2023-06-01T12:40:02;97818.25;;;26.80;42.53
36190;BME280;22232;50.914;13.858;2023-06-01T12:42:38;97816.78;;;26.82;41.70
36190;BME280;22232;50.914;13.858;2023-06-01T12:45:07;97810.94;;;26.84;41.09
36190;BME280;22232;50.914;13.858;2023-06-01T12:47:36;97811.34;;;26.61;41.36
36190;BME280;22232;50.914;13.858;2023-06-01T12:50:11;97812.41;;;26.81;39.53
36190;BME280;22232;50.914;13.858;2023-06-01T12:52:40;97817.75;;;27.11;39.56
36190;BME280;22232;50.914;13.858;2023-06-01T12:55:09;97808.94;;;27.38;39.72
36190;BME280;22232;50.914;13.858;2023-06-01T12:57:37;97803.00;;;27.24;37.59
36190;BME280;22232;50.914;13.858;2023-06-01T13:00:08;97807.91;;;27.31;37.74
36190;BME280;22232;50.914;13.858;2023-06-01T13:02:37;97807.13;;;27.30;36.67
36190;BME280;22232;50.914;13.858;2023-06-01T13:05:05;97809.38;;;27.28;38.02
36190;BME280;22232;50.914;13.858;2023-06-01T13:07:34;97811.09;;;27.45;35.81
36190;BME280;22232;50.914;13.858;2023-06-01T13:10:03;97814.28;;;27.22;36.02
36190;BME280;22232;50.914;13.858;2023-06-01T13:12:31;97808.81;;;27.59;35.24
36190;BME280;22232;50.914;13.858;2023-06-01T13:14:58;97804.50;;;27.46;35.30
36190;BME280;22232;50.914;13.858;2023-06-01T13:17:26;97799.09;;;27.25;35.68
36190;BME280;22232;50.914;13.858;2023-06-01T13:19:54;97802.25;;;26.69;35.59
36190;BME280;22232;50.914;13.858;2023-06-01T13:22:22;97797.13;;;26.26;36.43
36190;BME280;22232;50.914;13.858;2023-06-01T13:24:49;97794.53;;;26.29;38.24
36190;BME280;22232;50.914;13.858;2023-06-01T13:27:32;97793.84;;;26.53;39.07
36190;BME280;22232;50.914;13.858;2023-06-01T13:30:02;97790.72;;;26.97;37.79
36190;BME280;22232;50.914;13.858;2023-06-01T13:32:31;97786.91;;;26.89;37.99
36190;BME280;22232;50.914;13.858;2023-06-01T13:34:59;97793.66;;;26.92;39.08
36190;BME280;22232;50.914;13.858;2023-06-01T13:37:27;97782.78;;;27.16;38.96
36190;BME280;22232;50.914;13.858;2023-06-01T13:39:55;97788.03;;;27.21;37.75
36190;BME280;22232;50.914;13.858;2023-06-01T13:42:22;97777.47;;;27.11;37.37